createdAt,value
2023-03-12T00:04:05.506Z,9.40
2023-03-12T00:09:02.052Z,9.70
2023-03-12T00:14:11.662Z,8.40
2023-03-12T00:19:04.541Z,8.70
2023-03-12T00:23:57.368Z,9.20
2023-03-12T00:28:55.241Z,8.60
2023-03-12T00:33:50.072Z,7.00
2023-03-12T00:38:43.548Z,8.40
2023-03-12T00:43:37.294Z,9.30
2023-03-12T00:48:30.065Z,8.60
2023-03-12T00:53:23.096Z,9.20
2023-03-12T00:58:16.001Z,10.20
2023-03-12T01:03:08.855Z,11.30
2023-03-12T01:08:01.819Z,14.00
2023-03-12T01:12:54.626Z,10.70
2023-03-12T01:17:47.487Z,8.50
2023-03-12T01:22:40.650Z,11.00
2023-03-12T01:27:33.441Z,13.10
2023-03-12T01:32:26.485Z,10.30
2023-03-12T01:37:19.289Z,10.40
2023-03-12T01:42:12.154Z,12.00
2023-03-12T01:47:04.995Z,11.70
2023-03-12T01:52:19.658Z,10.90
2023-03-12T02:02:18.731Z,11.10
2023-03-12T02:07:14.731Z,11.60
2023-03-12T02:12:09.073Z,14.80
2023-03-12T02:17:02.374Z,11.90
2023-03-12T02:21:56.742Z,11.20
2023-03-12T02:26:49.960Z,14.50
2023-03-12T02:31:51.732Z,14.10
2023-03-12T02:36:44.947Z,10.40
2023-03-12T02:41:42.540Z,10.80
2023-03-12T02:46:39.472Z,11.50
2023-03-12T02:51:32.673Z,14.50
2023-03-12T02:56:27.780Z,10.10
2023-03-12T03:01:21.884Z,11.40
2023-03-12T03:06:16.200Z,12.30
2023-03-12T03:11:09.452Z,13.40
2023-03-12T03:16:03.965Z,8.10
2023-03-12T03:21:17.524Z,9.10
2023-03-12T03:26:11.559Z,7.10
2023-03-12T03:31:05.839Z,8.50
2023-03-12T03:36:02.384Z,8.10
2023-03-12T03:40:57.025Z,6.80
2023-03-12T03:45:50.586Z,9.30
2023-03-12T03:50:43.739Z,9.20
2023-03-12T03:55:42.545Z,7.60
2023-03-12T04:00:35.781Z,7.10
2023-03-12T04:05:29.837Z,9.50
2023-03-12T04:10:24.988Z,8.10
2023-03-12T04:15:18.378Z,8.20
2023-03-12T04:20:13.057Z,9.90
2023-03-12T04:25:07.888Z,11.80
2023-03-12T04:30:01.151Z,8.70
2023-03-12T04:34:54.043Z,3.90
2023-03-12T04:39:47.042Z,9.50
2023-03-12T04:44:41.148Z,7.30
2023-03-12T04:49:34.315Z,9.80
2023-03-12T04:54:28.210Z,6.60
2023-03-12T04:59:21.289Z,7.40
2023-03-12T05:04:14.642Z,7.00
2023-03-12T05:09:08.983Z,7.40
2023-03-12T05:14:03.030Z,6.50
2023-03-12T05:18:55.971Z,7.60
2023-03-12T05:23:49.657Z,7.00
2023-03-12T05:28:44.231Z,8.10
2023-03-12T05:33:37.974Z,7.10
2023-03-12T05:38:31.166Z,7.80
2023-03-12T05:43:24.685Z,6.40
2023-03-12T05:48:18.189Z,5.40
2023-03-12T05:53:11.745Z,6.50
2023-03-12T05:58:06.513Z,7.90
2023-03-12T06:03:00.226Z,8.90
2023-03-12T06:07:53.161Z,8.80
2023-03-12T06:12:46.859Z,6.60
2023-03-12T06:17:39.738Z,5.00
2023-03-12T06:22:32.792Z,6.70
2023-03-12T06:27:26.171Z,13.20
2023-03-12T06:32:19.564Z,5.60
2023-03-12T06:37:13.116Z,6.00
2023-03-12T06:42:06.844Z,5.80
2023-03-12T06:46:59.923Z,6.30
2023-03-12T06:51:53.638Z,5.40
2023-03-12T06:56:46.511Z,4.80
2023-03-12T07:01:39.434Z,5.00
2023-03-12T07:06:32.275Z,3.90
2023-03-12T07:11:25.064Z,4.70
2023-03-12T07:16:17.916Z,5.60
2023-03-12T07:21:10.814Z,4.90
2023-03-12T07:26:06.543Z,7.10
2023-03-12T07:31:04.162Z,4.90
2023-03-12T07:40:55.385Z,4.70
2023-03-12T07:45:48.678Z,3.90
2023-03-12T07:50:41.592Z,4.60
2023-03-12T07:55:36.069Z,6.80
2023-03-12T08:00:30.693Z,4.70
2023-03-12T08:05:24.995Z,7.00
2023-03-12T08:10:17.997Z,7.10
2023-03-12T08:15:12.892Z,5.80
2023-03-12T08:20:09.492Z,4.50
2023-03-12T08:25:02.291Z,5.90
2023-03-12T08:29:55.511Z,2.80
2023-03-12T08:34:48.381Z,4.50
2023-03-12T08:39:41.665Z,3.20
2023-03-12T08:44:34.982Z,2.10
2023-03-12T08:49:27.912Z,4.30
2023-03-12T08:54:21.718Z,7.30
2023-03-12T08:59:14.894Z,4.00
2023-03-12T09:04:08.016Z,2.80
2023-03-12T09:09:05.066Z,2.40
2023-03-12T09:14:31.187Z,2.80
2023-03-12T09:19:10.932Z,4.10
2023-03-12T09:24:03.826Z,1.50
2023-03-12T09:28:58.114Z,3.00
2023-03-12T09:33:50.950Z,2.10
2023-03-12T09:38:43.723Z,3.10
2023-03-12T09:44:16.794Z,3.10
2023-03-12T09:49:24.280Z,2.90
2023-03-12T09:54:28.803Z,5.50
2023-03-12T09:59:21.596Z,2.20
2023-03-12T10:04:59.058Z,2.20
2023-03-12T10:10:07.358Z,3.90
2023-03-12T10:15:21.679Z,4.00
2023-03-12T10:20:26.296Z,3.00
2023-03-12T10:25:43.699Z,3.10
2023-03-12T10:30:37.006Z,2.80
2023-03-12T10:35:30.652Z,2.50
2023-03-12T10:40:27.422Z,5.00
2023-03-12T10:45:43.229Z,3.60
2023-03-12T10:50:39.473Z,2.20
2023-03-12T10:55:33.043Z,3.10
2023-03-12T11:00:29.812Z,4.90
2023-03-12T11:05:30.974Z,3.70
2023-03-12T11:10:34.136Z,4.80
2023-03-12T11:15:32.645Z,4.10
2023-03-12T11:20:30.461Z,4.00
2023-03-12T11:25:27.436Z,2.60
2023-03-12T11:30:27.963Z,4.90
2023-03-12T11:35:42.667Z,3.90
2023-03-12T11:41:02.468Z,3.50
2023-03-12T11:46:07.553Z,4.60
2023-03-12T11:51:28.317Z,3.40
2023-03-12T11:56:31.387Z,2.20
2023-03-12T12:01:53.854Z,5.30
2023-03-12T12:07:04.927Z,4.00
2023-03-12T12:12:05.638Z,3.50
2023-03-12T12:17:07.516Z,3.00
2023-03-12T12:22:21.847Z,3.90
2023-03-12T12:27:21.994Z,3.60
2023-03-12T12:32:24.278Z,3.00
2023-03-12T12:37:37.417Z,2.50
2023-03-12T12:42:34.846Z,2.60
2023-03-12T12:48:00.903Z,3.80
2023-03-12T12:53:07.006Z,3.40
2023-03-12T12:58:16.995Z,4.10
2023-03-12T13:03:24.720Z,3.30
2023-03-12T13:09:00.672Z,4.40
2023-03-12T13:14:15.568Z,2.60
2023-03-12T13:19:22.872Z,5.30
2023-03-12T13:24:24.570Z,2.20
2023-03-12T13:29:29.541Z,3.60
2023-03-12T13:34:26.836Z,5.00
2023-03-12T13:39:29.453Z,2.30
2023-03-12T13:44:25.297Z,2.80
2023-03-12T13:49:19.937Z,3.00
2023-03-12T13:54:20.965Z,3.20
2023-03-12T13:59:18.925Z,5.90
2023-03-12T14:04:38.959Z,2.70
2023-03-12T14:09:48.241Z,3.10
2023-03-12T14:15:19.088Z,3.10
2023-03-12T14:20:14.358Z,2.90
2023-03-12T14:25:15.521Z,2.30
2023-03-12T14:30:13.379Z,3.00
2023-03-12T14:35:30.558Z,3.60
2023-03-12T14:40:30.110Z,3.80
2023-03-12T14:45:24.217Z,4.50
2023-03-12T14:50:31.834Z,3.70
2023-03-12T14:55:26.940Z,3.20
2023-03-12T15:00:25.688Z,4.60
2023-03-12T15:05:21.468Z,3.50
2023-03-12T15:10:34.780Z,5.30
2023-03-12T15:15:36.502Z,3.70
2023-03-12T15:20:31.106Z,4.80
2023-03-12T15:25:32.277Z,1.80
2023-03-12T15:30:28.099Z,3.20
2023-03-12T15:35:26.764Z,7.80
2023-03-12T15:40:31.022Z,3.30
2023-03-12T15:45:49.354Z,3.50
2023-03-12T15:50:45.492Z,4.30
2023-03-12T15:55:38.632Z,4.40
2023-03-12T16:00:47.021Z,3.30
2023-03-12T16:05:41.072Z,5.30
2023-03-12T16:10:38.752Z,4.70
2023-03-12T16:20:59.280Z,6.20
2023-03-12T16:26:04.709Z,3.90
2023-03-12T16:31:31.456Z,3.60
2023-03-12T16:36:55.927Z,5.60
2023-03-12T16:41:55.840Z,7.40
2023-03-12T16:47:14.447Z,5.40
2023-03-12T16:52:22.446Z,6.30
2023-03-12T16:57:38.172Z,4.50
2023-03-12T17:02:32.851Z,5.80
2023-03-12T17:07:25.891Z,9.60
2023-03-12T17:12:25.782Z,13.30
2023-03-12T17:17:18.654Z,6.10
2023-03-12T17:22:11.538Z,4.70
2023-03-12T17:27:04.858Z,6.40
2023-03-12T17:31:57.724Z,8.10
2023-03-12T17:36:50.578Z,6.80
2023-03-12T17:41:43.621Z,7.50
2023-03-12T17:46:39.240Z,6.50
2023-03-12T17:51:35.251Z,7.80
2023-03-12T17:56:28.165Z,4.70
2023-03-12T18:01:21.027Z,6.90
2023-03-12T18:06:14.217Z,8.30
2023-03-12T18:11:07.448Z,9.60
2023-03-12T18:16:00.593Z,6.80
2023-03-12T18:20:53.546Z,11.50
2023-03-12T18:25:46.733Z,7.80
2023-03-12T18:30:39.574Z,10.60
2023-03-12T18:35:32.939Z,7.80
2023-03-12T18:40:27.679Z,8.20
2023-03-12T18:45:20.485Z,9.60
2023-03-12T18:50:14.202Z,11.50
2023-03-12T18:55:07.242Z,10.80
2023-03-12T19:00:00.423Z,12.80
2023-03-12T19:04:55.990Z,12.20
2023-03-12T19:09:49.107Z,14.10
2023-03-12T19:14:42.358Z,10.80
2023-03-12T19:19:35.162Z,12.00
2023-03-12T19:24:28.228Z,15.60
2023-03-12T19:29:21.152Z,17.00
2023-03-12T19:34:14.467Z,18.90
2023-03-12T19:39:20.542Z,22.40
2023-03-12T19:44:14.176Z,27.90
2023-03-12T19:49:06.944Z,30.90
2023-03-12T19:53:59.709Z,29.00
2023-03-12T19:58:52.554Z,31.70
2023-03-12T20:03:45.431Z,33.50
2023-03-12T20:08:38.307Z,29.90
2023-03-12T20:13:31.324Z,32.30
2023-03-12T20:18:24.568Z,33.40
2023-03-12T20:23:18.183Z,27.80
2023-03-12T20:28:11.989Z,28.50
2023-03-12T20:33:06.127Z,28.00
2023-03-12T20:37:59.842Z,29.30
2023-03-12T20:42:52.702Z,27.30
2023-03-12T20:47:45.568Z,32.70
2023-03-12T20:52:39.229Z,29.00
2023-03-12T20:57:32.141Z,25.40
2023-03-12T21:02:25.280Z,26.60
2023-03-12T21:07:18.238Z,29.70
2023-03-12T21:12:11.085Z,24.20
2023-03-12T21:17:03.972Z,27.90
2023-03-12T21:21:56.990Z,28.80
2023-03-12T21:26:49.849Z,23.50
2023-03-12T21:31:42.765Z,21.50
2023-03-12T21:36:35.585Z,19.80
2023-03-12T21:41:28.391Z,21.70
2023-03-12T21:46:24.860Z,21.10
2023-03-12T21:51:19.731Z,24.40
2023-03-12T21:56:13.222Z,19.10
2023-03-12T22:01:09.447Z,19.60
2023-03-12T22:06:02.526Z,21.00
2023-03-12T22:10:55.767Z,20.60
2023-03-12T22:16:00.998Z,22.90
2023-03-12T22:20:55.653Z,26.30
2023-03-12T22:25:48.840Z,22.10
2023-03-12T22:30:41.669Z,24.70
2023-03-12T22:35:34.505Z,21.50
2023-03-12T22:40:27.913Z,24.80
2023-03-12T22:45:20.945Z,27.00
2023-03-12T22:50:14.230Z,23.40
2023-03-12T22:55:07.539Z,29.80
2023-03-12T23:00:00.341Z,25.20
2023-03-12T23:04:53.709Z,27.00
2023-03-12T23:09:48.230Z,27.50
2023-03-12T23:14:41.075Z,24.90
2023-03-12T23:19:35.108Z,23.10
2023-03-12T23:24:27.902Z,21.30
2023-03-12T23:29:20.707Z,24.60
2023-03-12T23:34:13.565Z,25.20
2023-03-12T23:39:06.452Z,29.20
2023-03-12T23:44:01.141Z,21.60
2023-03-12T23:48:55.045Z,21.60
2023-03-12T23:53:53.778Z,21.10
2023-03-12T23:58:47.368Z,20.80
